createdAt,value
2018-07-13T00:00:03.397Z,6.78
2018-07-13T00:01:06.975Z,6.90
2018-07-13T00:02:10.541Z,7.22
2018-07-13T00:03:14.291Z,6.78
2018-07-13T00:04:17.916Z,6.92
2018-07-13T00:05:22.233Z,7.30
2018-07-13T00:06:25.746Z,7.10
2018-07-13T00:07:29.285Z,7.90
2018-07-13T00:08:32.828Z,7.58
2018-07-13T00:09:36.073Z,7.15
2018-07-13T00:10:39.551Z,6.70
2018-07-13T00:11:43.040Z,6.67
2018-07-13T00:12:46.600Z,7.65
2018-07-13T00:14:23.520Z,6.97
2018-07-13T00:15:27.031Z,7.28
2018-07-13T00:16:30.600Z,6.72
2018-07-13T00:17:34.175Z,7.83
2018-07-13T00:18:37.668Z,7.78
2018-07-13T00:19:41.978Z,7.25
2018-07-13T00:20:45.664Z,8.18
2018-07-13T00:21:49.709Z,7.42
2018-07-13T00:22:53.540Z,8.70
2018-07-13T00:23:57.713Z,8.55
2018-07-13T00:25:01.209Z,8.65
2018-07-13T00:26:04.857Z,8.48
2018-07-13T00:27:08.404Z,8.08
2018-07-13T00:28:12.184Z,8.20
2018-07-13T00:29:16.024Z,8.90
2018-07-13T00:30:19.513Z,7.92
2018-07-13T00:31:23.352Z,8.03
2018-07-13T00:32:27.232Z,8.75
2018-07-13T00:33:30.716Z,8.93
2018-07-13T00:34:34.206Z,8.80
2018-07-13T00:35:37.973Z,7.95
2018-07-13T00:36:41.974Z,9.00
2018-07-13T00:37:45.607Z,8.48
2018-07-13T00:38:49.177Z,8.83
2018-07-13T00:39:52.747Z,8.90
2018-07-13T00:40:56.560Z,8.45
2018-07-13T00:42:00.041Z,9.05
2018-07-13T00:43:04.178Z,8.30
2018-07-13T00:44:08.242Z,8.73
2018-07-13T00:45:11.995Z,8.53
2018-07-13T00:46:15.621Z,9.05
2018-07-13T00:47:19.174Z,9.75
2018-07-13T00:48:22.622Z,9.10
2018-07-13T00:49:26.154Z,10.13
2018-07-13T00:50:29.652Z,9.45
2018-07-13T00:51:33.159Z,9.70
2018-07-13T00:52:36.736Z,9.18
2018-07-13T00:53:40.293Z,8.88
2018-07-13T00:54:44.026Z,9.18
2018-07-13T00:55:47.528Z,9.28
2018-07-13T00:56:51.219Z,10.43
2018-07-13T00:57:54.848Z,9.60
2018-07-13T00:58:58.458Z,10.60
2018-07-13T01:00:02.209Z,10.30
2018-07-13T01:01:05.931Z,10.00
2018-07-13T01:02:09.729Z,10.65
2018-07-13T01:03:13.836Z,11.43
2018-07-13T01:04:17.320Z,11.03
2018-07-13T01:05:20.813Z,10.72
2018-07-13T01:06:24.510Z,10.68
2018-07-13T01:07:28.146Z,10.85
2018-07-13T01:08:31.973Z,10.95
2018-07-13T01:09:35.457Z,11.18
2018-07-13T01:10:38.644Z,10.45
2018-07-13T01:11:42.406Z,12.75
2018-07-13T01:12:46.312Z,12.15
2018-07-13T01:13:50.568Z,11.53
2018-07-13T01:14:54.029Z,11.22
2018-07-13T01:15:57.845Z,12.35
2018-07-13T01:17:01.318Z,12.65
2018-07-13T01:18:04.864Z,11.50
2018-07-13T01:19:08.361Z,11.97
2018-07-13T01:20:12.302Z,12.45
2018-07-13T01:21:15.949Z,12.68
2018-07-13T01:22:19.493Z,13.08
2018-07-13T01:23:23.145Z,12.80
2018-07-13T01:24:26.897Z,13.22
2018-07-13T01:25:30.453Z,12.95
2018-07-13T01:26:34.125Z,12.75
2018-07-13T01:27:37.393Z,14.03
2018-07-13T01:28:40.956Z,13.72
2018-07-13T01:29:44.490Z,13.83
2018-07-13T01:30:48.021Z,13.55
2018-07-13T01:31:51.677Z,14.43
2018-07-13T01:32:56.049Z,14.03
2018-07-13T01:33:59.619Z,14.13
2018-07-13T01:35:03.131Z,14.55
2018-07-13T01:38:01.502Z,14.28
2018-07-13T01:39:10.454Z,16.15
2018-07-13T01:40:43.374Z,15.83
2018-07-13T01:41:48.404Z,15.98
2018-07-13T01:42:51.914Z,15.95
2018-07-13T01:43:55.437Z,16.17
2018-07-13T01:44:59.530Z,16.35
2018-07-13T01:46:03.022Z,16.27
2018-07-13T01:47:06.527Z,15.53
2018-07-13T01:48:10.069Z,15.70
2018-07-13T01:49:13.621Z,15.63
2018-07-13T01:50:17.143Z,16.15
2018-07-13T01:51:20.654Z,17.48
2018-07-13T01:52:24.318Z,17.98
2018-07-13T01:53:27.791Z,16.90
2018-07-13T01:54:31.364Z,17.42
2018-07-13T01:55:35.899Z,18.12
2018-07-13T01:56:40.165Z,17.32
2018-07-13T01:57:43.643Z,17.73
2018-07-13T01:58:47.891Z,19.23
2018-07-13T01:59:51.763Z,17.50
2018-07-13T02:00:55.281Z,17.87
2018-07-13T02:01:59.357Z,19.50
2018-07-13T02:03:04.160Z,17.67
2018-07-13T02:04:07.716Z,18.25
2018-07-13T02:05:11.274Z,17.65
2018-07-13T02:06:14.872Z,18.00
2018-07-13T02:07:18.378Z,18.35
2018-07-13T02:08:22.019Z,19.65
2018-07-13T02:09:25.674Z,17.98
2018-07-13T02:10:29.163Z,19.52
2018-07-13T02:11:32.796Z,17.73
2018-07-13T02:12:36.442Z,17.90
2018-07-13T02:13:39.978Z,17.90
2018-07-13T02:14:43.473Z,19.07
2018-07-13T02:15:47.029Z,20.85
2018-07-13T02:16:50.488Z,19.87
2018-07-13T02:17:53.999Z,19.87
2018-07-13T02:18:57.587Z,19.50
2018-07-13T02:20:01.228Z,19.40
2018-07-13T02:21:04.796Z,19.20
2018-07-13T02:22:08.439Z,19.50
2018-07-13T02:23:12.280Z,19.07
2018-07-13T02:24:15.744Z,19.48
2018-07-13T02:25:19.255Z,20.17
2018-07-13T02:26:22.836Z,19.60
2018-07-13T02:27:26.276Z,22.35
2018-07-13T02:28:29.958Z,21.73
2018-07-13T02:29:33.516Z,19.48
2018-07-13T02:30:37.039Z,23.18
2018-07-13T02:31:40.538Z,22.07
2018-07-13T02:32:44.011Z,22.22
2018-07-13T02:33:47.539Z,21.33
2018-07-13T02:34:50.951Z,19.55
2018-07-13T02:35:55.040Z,21.33
2018-07-13T02:36:58.612Z,23.12
2018-07-13T02:38:03.088Z,22.48
2018-07-13T02:39:07.261Z,21.80
2018-07-13T02:40:10.814Z,22.30
2018-07-13T02:41:14.288Z,22.10
2018-07-13T02:42:17.721Z,22.93
2018-07-13T02:43:21.245Z,22.15
2018-07-13T02:44:24.665Z,23.67
2018-07-13T02:45:28.172Z,21.77
2018-07-13T02:46:31.633Z,21.50
2018-07-13T02:47:35.105Z,20.37
2018-07-13T02:48:38.699Z,23.02
2018-07-13T02:49:42.196Z,22.77
2018-07-13T02:50:45.661Z,21.60
2018-07-13T02:51:49.137Z,22.93
2018-07-13T02:52:52.580Z,23.40
2018-07-13T02:53:56.076Z,24.27
2018-07-13T02:55:00.252Z,25.05
2018-07-13T02:56:03.960Z,23.98
2018-07-13T02:57:08.107Z,24.47
2018-07-13T02:58:11.921Z,24.82
2018-07-13T02:59:15.391Z,23.12
2018-07-13T03:00:18.865Z,24.85
2018-07-13T03:01:22.405Z,25.00
2018-07-13T03:02:25.889Z,24.18
2018-07-13T03:03:29.441Z,22.42
2018-07-13T03:04:32.974Z,23.83
2018-07-13T03:05:36.492Z,25.65
2018-07-13T03:06:39.950Z,24.18
2018-07-13T03:07:43.502Z,23.32
2018-07-13T03:08:47.772Z,24.95
2018-07-13T03:09:51.328Z,23.57
2018-07-13T03:10:54.809Z,23.87
2018-07-13T03:11:58.321Z,24.20
2018-07-13T03:13:02.047Z,23.07
2018-07-13T03:14:06.225Z,25.60
2018-07-13T03:15:09.746Z,24.45
2018-07-13T03:16:13.303Z,23.18
2018-07-13T03:17:16.737Z,23.75
2018-07-13T03:18:20.187Z,23.27
2018-07-13T03:19:23.718Z,23.65
2018-07-13T03:20:27.211Z,24.77
2018-07-13T03:21:30.687Z,25.12
2018-07-13T03:22:34.574Z,24.07
2018-07-13T03:23:37.738Z,23.55
2018-07-13T03:24:41.173Z,24.00
2018-07-13T03:25:44.650Z,23.15
2018-07-13T03:26:48.141Z,24.25
2018-07-13T03:27:51.655Z,24.02
2018-07-13T03:28:55.103Z,23.32
2018-07-13T03:29:58.567Z,24.45
2018-07-13T03:31:02.786Z,23.42
2018-07-13T03:32:08.101Z,23.80
2018-07-13T03:33:11.624Z,24.75
2018-07-13T03:34:15.101Z,25.27
2018-07-13T03:35:18.563Z,23.25
2018-07-13T03:36:22.045Z,23.67
2018-07-13T03:37:25.536Z,25.72
2018-07-13T03:38:28.802Z,24.65
2018-07-13T03:39:32.190Z,25.00
2018-07-13T03:40:35.965Z,23.90
2018-07-13T03:41:39.518Z,24.80
2018-07-13T03:42:43.112Z,25.75
2018-07-13T03:43:47.694Z,25.62
2018-07-13T03:44:51.188Z,24.45
2018-07-13T03:45:54.727Z,23.40
2018-07-13T03:46:58.394Z,24.40
2018-07-13T03:48:01.962Z,22.65
2018-07-13T03:49:06.161Z,23.52
2018-07-13T03:50:09.748Z,23.83
2018-07-13T03:51:13.538Z,22.13
2018-07-13T03:52:17.034Z,22.00
2018-07-13T03:53:20.606Z,21.52
2018-07-13T03:54:24.798Z,22.35
2018-07-13T03:55:28.388Z,20.45
2018-07-13T03:56:32.094Z,21.80
2018-07-13T03:57:35.559Z,20.97
2018-07-13T03:58:39.158Z,21.85
2018-07-13T03:59:43.253Z,22.10
2018-07-13T04:00:46.703Z,22.35
2018-07-13T04:01:50.191Z,20.77
2018-07-13T04:02:53.660Z,21.05
2018-07-13T04:03:57.133Z,21.02
2018-07-13T04:05:01.589Z,21.60
2018-07-13T04:06:05.145Z,21.02
2018-07-13T04:07:08.705Z,21.20
2018-07-13T04:08:12.849Z,22.02
2018-07-13T04:09:16.929Z,20.75
2018-07-13T04:10:20.443Z,21.00
2018-07-13T04:11:24.090Z,19.85
2018-07-13T04:12:27.543Z,21.60
2018-07-13T04:13:31.147Z,20.55
2018-07-13T04:14:34.659Z,20.75
2018-07-13T04:15:38.258Z,19.82
2018-07-13T04:16:41.966Z,20.80
2018-07-13T04:17:45.454Z,19.55
2018-07-13T04:18:49.236Z,20.25
2018-07-13T04:19:52.760Z,19.50
2018-07-13T04:20:56.287Z,17.40
2018-07-13T04:21:59.911Z,16.95
2018-07-13T04:23:03.235Z,18.65
2018-07-13T04:24:06.830Z,17.52
2018-07-13T04:25:11.192Z,16.40
2018-07-13T04:26:14.837Z,18.15
2018-07-13T04:27:18.462Z,15.48
2018-07-13T04:28:22.369Z,17.62
2018-07-13T04:29:26.003Z,15.98
2018-07-13T04:30:29.601Z,15.75
2018-07-13T04:31:33.098Z,14.38
2018-07-13T04:32:36.876Z,13.15
2018-07-13T04:33:41.143Z,12.78
2018-07-13T04:34:44.650Z,11.97
2018-07-13T04:35:48.229Z,13.38
2018-07-13T04:36:51.741Z,10.75
2018-07-13T04:37:55.205Z,9.83
2018-07-13T04:38:58.669Z,9.38
2018-07-13T04:40:02.362Z,9.65
2018-07-13T04:41:06.150Z,9.23
2018-07-13T04:42:10.203Z,8.45
2018-07-13T04:43:13.776Z,8.45
2018-07-13T04:44:17.295Z,8.50
2018-07-13T04:45:21.052Z,7.60
2018-07-13T04:46:24.840Z,9.73
2018-07-13T04:47:28.651Z,6.95
2018-07-13T04:48:34.208Z,8.20
2018-07-13T04:49:36.911Z,8.00
2018-07-13T04:50:40.558Z,7.92
2018-07-13T04:51:44.196Z,7.30
2018-07-13T04:52:48.129Z,7.58
2018-07-13T04:53:52.725Z,7.87
2018-07-13T04:54:56.360Z,7.47
2018-07-13T04:55:59.949Z,8.10
2018-07-13T04:57:03.880Z,8.40
2018-07-13T04:58:07.502Z,8.10
2018-07-13T04:59:11.521Z,8.45
2018-07-13T05:00:15.134Z,8.15
2018-07-13T05:01:18.868Z,8.28
2018-07-13T05:02:22.456Z,9.00
2018-07-13T05:03:26.098Z,8.25
2018-07-13T05:04:29.764Z,8.30
2018-07-13T05:05:33.387Z,8.85
2018-07-13T05:06:38.427Z,8.50
2018-07-13T05:07:42.761Z,9.13
2018-07-13T05:08:48.182Z,8.88
2018-07-13T05:09:52.708Z,8.65
2018-07-13T05:10:58.956Z,9.13
2018-07-13T05:12:02.584Z,8.50
2018-07-13T05:13:07.735Z,9.18
2018-07-13T05:14:12.040Z,9.80
2018-07-13T05:15:15.584Z,9.05
2018-07-13T05:16:19.865Z,9.10
2018-07-13T05:17:23.487Z,8.75
2018-07-13T05:18:27.055Z,10.43
2018-07-13T05:19:30.608Z,9.83
2018-07-13T05:20:34.155Z,9.58
2018-07-13T05:21:37.775Z,9.93
2018-07-13T05:22:41.370Z,10.03
2018-07-13T05:23:45.019Z,8.95
2018-07-13T05:24:48.583Z,9.33
2018-07-13T05:25:52.109Z,10.30
2018-07-13T05:26:56.188Z,10.25
2018-07-13T05:27:59.895Z,10.45
2018-07-13T05:29:03.460Z,10.15
2018-07-13T05:30:07.686Z,10.00
2018-07-13T05:31:11.551Z,10.78
2018-07-13T05:32:15.554Z,11.70
2018-07-13T05:33:19.183Z,10.15
2018-07-13T05:34:23.993Z,11.33
2018-07-13T05:35:27.570Z,10.30
2018-07-13T05:36:31.171Z,10.68
2018-07-13T05:37:34.741Z,10.32
2018-07-13T05:38:38.801Z,10.48
2018-07-13T05:39:42.477Z,10.78
2018-07-13T05:40:46.196Z,10.28
2018-07-13T05:41:49.995Z,10.50
2018-07-13T05:42:53.186Z,11.25
2018-07-13T05:43:56.797Z,10.50
2018-07-13T05:45:00.364Z,10.20
2018-07-13T05:46:03.972Z,10.48
2018-07-13T05:47:08.680Z,9.83
2018-07-13T05:48:12.545Z,10.55
2018-07-13T05:49:16.459Z,9.70
2018-07-13T05:50:19.743Z,10.78
2018-07-13T05:51:23.828Z,10.80
2018-07-13T05:52:27.481Z,10.72
2018-07-13T05:53:31.547Z,11.15
2018-07-13T05:54:34.811Z,9.80
2018-07-13T05:55:38.543Z,10.70
2018-07-13T05:56:43.118Z,10.15
2018-07-13T05:57:46.766Z,11.50
2018-07-13T05:58:50.800Z,11.30
2018-07-13T05:59:54.473Z,12.98
2018-07-13T06:00:58.119Z,10.90
2018-07-13T06:02:01.739Z,11.63
2018-07-13T06:03:05.428Z,12.25
2018-07-13T06:04:09.479Z,11.00
2018-07-13T06:05:13.186Z,10.63
2018-07-13T06:06:17.318Z,9.85
2018-07-13T06:07:20.912Z,10.18
2018-07-13T06:08:24.485Z,10.90
2018-07-13T06:09:28.128Z,10.18
2018-07-13T06:10:31.773Z,10.08
2018-07-13T06:11:35.418Z,11.85
2018-07-13T06:12:39.686Z,10.30
2018-07-13T06:13:43.228Z,11.35
2018-07-13T06:14:46.809Z,9.88
2018-07-13T06:15:50.446Z,13.03
2018-07-13T06:16:53.946Z,12.05
2018-07-13T06:17:58.145Z,10.85
2018-07-13T06:19:01.755Z,11.28
2018-07-13T06:20:07.152Z,9.93
2018-07-13T06:21:10.709Z,10.10
2018-07-13T06:22:14.287Z,10.68
2018-07-13T06:23:17.822Z,11.25
2018-07-13T06:24:21.359Z,11.25
2018-07-13T06:25:25.562Z,11.25
2018-07-13T06:26:29.755Z,10.60
2018-07-13T06:27:33.341Z,10.82
2018-07-13T06:28:37.086Z,11.53
2018-07-13T06:29:41.534Z,10.78
2018-07-13T06:30:45.212Z,11.35
2018-07-13T06:31:49.001Z,11.75
2018-07-13T06:32:52.583Z,11.00
2018-07-13T06:33:56.088Z,10.82
2018-07-13T06:35:00.047Z,10.68
2018-07-13T06:36:03.602Z,11.25
2018-07-13T06:37:07.429Z,10.38
2018-07-13T06:38:11.510Z,10.43
2018-07-13T06:39:15.070Z,10.28
2018-07-13T06:40:18.762Z,10.72
2018-07-13T06:41:22.389Z,10.58
2018-07-13T06:42:25.981Z,9.60
2018-07-13T06:43:30.168Z,9.83
2018-07-13T06:44:33.757Z,8.90
2018-07-13T06:45:39.606Z,9.38
2018-07-13T06:46:46.533Z,8.58
2018-07-13T06:47:50.055Z,9.48
2018-07-13T06:48:54.487Z,8.80
2018-07-13T06:49:58.092Z,9.08
2018-07-13T06:51:01.672Z,9.00
2018-07-13T06:52:05.378Z,10.23
2018-07-13T06:53:09.973Z,9.13
2018-07-13T06:54:14.176Z,8.75
2018-07-13T06:55:18.515Z,8.25
2018-07-13T06:56:22.578Z,8.50
2018-07-13T06:57:37.368Z,9.50
2018-07-13T06:58:52.063Z,9.85
2018-07-13T06:59:55.790Z,10.23
2018-07-13T07:01:03.411Z,9.78
2018-07-13T07:02:07.229Z,11.28
2018-07-13T07:03:11.270Z,10.05
2018-07-13T07:04:31.177Z,9.93
2018-07-13T07:06:09.972Z,9.53
2018-07-13T07:07:15.517Z,9.80
2018-07-13T07:08:18.698Z,10.15
2018-07-13T07:09:22.606Z,9.48
2018-07-13T07:10:26.254Z,9.78
2018-07-13T07:11:30.506Z,7.62
2018-07-13T07:12:49.327Z,8.95
2018-07-13T07:13:52.911Z,8.73
2018-07-13T07:14:57.207Z,8.48
2018-07-13T07:16:01.334Z,9.33
2018-07-13T07:17:05.062Z,8.58
2018-07-13T07:18:09.029Z,8.28
2018-07-13T07:19:12.612Z,7.97
2018-07-13T07:20:16.503Z,8.63
2018-07-13T07:21:20.052Z,8.68
2018-07-13T07:22:23.690Z,8.48
2018-07-13T07:23:28.203Z,8.45
2018-07-13T07:24:31.715Z,9.08
2018-07-13T07:25:35.471Z,9.05
2018-07-13T07:26:38.990Z,8.33
2018-07-13T07:27:43.092Z,7.65
2018-07-13T07:28:46.676Z,8.75
2018-07-13T07:29:50.156Z,7.92
2018-07-13T07:30:54.485Z,8.20
2018-07-13T07:31:58.330Z,7.55
2018-07-13T07:33:02.140Z,6.95
2018-07-13T07:34:05.850Z,8.80
2018-07-13T07:35:10.239Z,7.40
2018-07-13T07:36:13.802Z,7.05
2018-07-13T07:37:17.481Z,7.30
2018-07-13T07:38:21.060Z,7.33
2018-07-13T07:39:25.574Z,7.72
2018-07-13T07:40:29.222Z,6.78
2018-07-13T07:41:32.816Z,7.50
2018-07-13T07:42:36.417Z,5.95
2018-07-13T07:43:40.266Z,6.78
2018-07-13T07:44:43.862Z,6.45
2018-07-13T07:45:47.521Z,7.12
2018-07-13T07:46:51.797Z,6.47
2018-07-13T07:47:55.379Z,6.33
2018-07-13T07:48:58.951Z,5.83
2018-07-13T07:50:02.429Z,6.58
2018-07-13T07:51:06.077Z,6.03
2018-07-13T07:52:09.609Z,7.03
2018-07-13T07:53:13.162Z,6.42
2018-07-13T07:54:16.655Z,6.60
2018-07-13T07:55:20.216Z,6.30
2018-07-13T07:56:24.591Z,6.12
2018-07-13T07:57:28.822Z,6.45
2018-07-13T07:58:32.401Z,7.25
2018-07-13T07:59:36.036Z,6.35
2018-07-13T08:00:39.911Z,6.92
2018-07-13T08:01:43.565Z,6.35
2018-07-13T08:02:47.093Z,7.10
2018-07-13T08:03:50.623Z,7.08
2018-07-13T08:04:54.304Z,5.50
2018-07-13T08:05:58.108Z,6.30
2018-07-13T08:07:02.062Z,5.80
2018-07-13T08:08:06.552Z,5.55
2018-07-13T08:09:10.542Z,5.28
2018-07-13T08:10:14.368Z,5.65
2018-07-13T08:11:18.049Z,5.47
2018-07-13T08:12:21.601Z,5.45
2018-07-13T08:13:25.132Z,6.10
2018-07-13T08:14:28.609Z,5.70
2018-07-13T08:15:32.142Z,5.97
2018-07-13T08:16:35.778Z,6.10
2018-07-13T08:17:39.313Z,5.70
2018-07-13T08:18:42.727Z,5.87
2018-07-13T08:19:46.228Z,5.78
2018-07-13T08:20:49.996Z,6.10
2018-07-13T08:21:53.977Z,6.17
2018-07-13T08:22:58.582Z,5.90
2018-07-13T08:24:03.371Z,6.37
2018-07-13T08:25:09.545Z,6.03
2018-07-13T08:26:13.466Z,5.30
2018-07-13T08:27:22.059Z,5.47
2018-07-13T08:28:26.079Z,5.55
2018-07-13T08:29:32.330Z,5.20
2018-07-13T08:30:39.879Z,5.75
2018-07-13T08:31:43.928Z,5.62
2018-07-13T08:32:48.176Z,6.25
2018-07-13T08:33:51.788Z,5.00
2018-07-13T08:34:55.248Z,5.33
2018-07-13T08:35:58.817Z,5.28
2018-07-13T08:37:02.459Z,5.67
2018-07-13T08:38:06.455Z,5.92
2018-07-13T08:39:10.080Z,5.28
2018-07-13T08:40:14.575Z,6.00
2018-07-13T08:41:18.321Z,5.55
2018-07-13T08:42:22.119Z,5.70
2018-07-13T08:43:25.688Z,5.97
2018-07-13T08:44:29.295Z,4.97
2018-07-13T08:45:33.208Z,6.58
2018-07-13T08:46:36.727Z,5.40
2018-07-13T08:47:40.406Z,5.37
2018-07-13T08:48:44.103Z,5.95
2018-07-13T08:49:47.705Z,5.30
2018-07-13T08:50:51.737Z,5.03
2018-07-13T08:51:55.477Z,4.67
2018-07-13T08:52:59.627Z,4.97
2018-07-13T08:54:03.263Z,4.80
2018-07-13T08:55:14.874Z,5.17
2018-07-13T08:56:18.604Z,4.92
2018-07-13T08:57:22.235Z,5.58
2018-07-13T08:58:25.886Z,5.33
2018-07-13T08:59:29.501Z,5.30
2018-07-13T09:00:33.182Z,4.75
2018-07-13T09:01:38.077Z,5.08
2018-07-13T09:02:41.625Z,5.20
2018-07-13T09:03:45.198Z,5.62
2018-07-13T09:04:49.359Z,4.90
2018-07-13T09:05:53.012Z,5.35
2018-07-13T09:06:57.343Z,5.35
2018-07-13T09:08:00.993Z,5.10
2018-07-13T09:09:05.888Z,4.62
2018-07-13T09:10:11.620Z,5.00
2018-07-13T09:11:15.171Z,5.03
2018-07-13T09:12:18.720Z,4.83
2018-07-13T09:13:22.347Z,5.15
2018-07-13T09:14:25.943Z,4.83
2018-07-13T09:15:30.070Z,5.08
2018-07-13T09:16:33.607Z,4.75
2018-07-13T09:17:37.171Z,4.28
2018-07-13T09:18:40.660Z,5.00
2018-07-13T09:19:44.534Z,5.00
2018-07-13T09:20:48.082Z,4.70
2018-07-13T09:21:51.818Z,4.40
2018-07-13T09:22:55.371Z,4.45
2018-07-13T09:24:00.353Z,4.22
2018-07-13T09:25:04.089Z,4.47
2018-07-13T09:26:08.328Z,4.28
2018-07-13T09:27:12.119Z,4.58
2018-07-13T09:28:15.699Z,4.47
2018-07-13T09:29:19.239Z,4.33
2018-07-13T09:30:22.895Z,4.33
2018-07-13T09:31:26.540Z,4.40
2018-07-13T09:32:30.108Z,4.22
2018-07-13T09:33:33.748Z,4.33
2018-07-13T09:34:37.519Z,4.67
2018-07-13T09:35:41.050Z,4.70
2018-07-13T09:36:45.853Z,4.12
2018-07-13T09:37:50.186Z,3.80
2018-07-13T09:38:55.257Z,3.98
2018-07-13T09:39:58.896Z,4.62
2018-07-13T09:41:02.758Z,4.03
2018-07-13T09:42:06.649Z,3.98
2018-07-13T09:43:10.197Z,4.03
2018-07-13T09:44:13.784Z,4.03
2018-07-13T09:45:17.958Z,4.20
2018-07-13T09:46:21.624Z,4.70
2018-07-13T09:47:25.934Z,4.80
2018-07-13T09:48:30.175Z,3.60
2018-07-13T09:49:34.041Z,4.70
2018-07-13T09:50:37.836Z,4.00
2018-07-13T09:51:41.392Z,4.75
2018-07-13T09:52:45.336Z,4.40
2018-07-13T09:53:49.154Z,4.55
2018-07-13T09:54:53.181Z,4.55
2018-07-13T09:55:56.733Z,4.55
2018-07-13T09:57:00.286Z,4.72
2018-07-13T09:58:04.465Z,3.90
2018-07-13T09:59:08.388Z,3.50
2018-07-13T10:00:13.477Z,4.17
2018-07-13T10:01:19.238Z,4.35
2018-07-13T10:02:23.073Z,4.37
2018-07-13T10:03:26.593Z,3.85
2018-07-13T10:04:30.185Z,3.80
2018-07-13T10:05:33.792Z,4.22
2018-07-13T10:06:37.411Z,3.92
2018-07-13T10:07:41.012Z,3.75
2018-07-13T10:08:44.813Z,4.20
2018-07-13T10:09:48.436Z,3.92
2018-07-13T10:10:51.963Z,4.62
2018-07-13T10:11:55.553Z,4.75
2018-07-13T10:12:59.085Z,3.85
2018-07-13T10:14:02.819Z,4.17
2018-07-13T10:15:06.805Z,4.15
2018-07-13T10:16:10.740Z,4.47
2018-07-13T10:17:14.522Z,3.72
2018-07-13T10:18:18.061Z,3.60
2018-07-13T10:19:21.856Z,3.95
2018-07-13T10:20:25.817Z,4.08
2018-07-13T10:21:29.796Z,3.83
2018-07-13T10:22:33.445Z,4.22
2018-07-13T10:23:37.732Z,3.47
2018-07-13T10:24:42.327Z,3.60
2018-07-13T10:25:46.584Z,4.70
2018-07-13T10:26:50.968Z,3.90
2018-07-13T10:27:55.141Z,4.40
2018-07-13T10:28:59.407Z,4.80
2018-07-13T10:30:04.421Z,4.80
2018-07-13T10:31:08.819Z,5.28
2018-07-13T10:32:12.897Z,4.83
2018-07-13T10:33:17.725Z,4.05
2018-07-13T10:34:22.317Z,3.98
2018-07-13T10:35:26.020Z,4.53
2018-07-13T10:36:31.216Z,3.75
2018-07-13T10:37:35.072Z,4.10
2018-07-13T10:38:39.270Z,3.92
2018-07-13T10:39:43.183Z,4.35
2018-07-13T10:40:46.760Z,3.92
2018-07-13T10:41:50.838Z,4.28
2018-07-13T10:42:54.370Z,5.08
2018-07-13T10:43:57.919Z,4.08
2018-07-13T10:45:01.876Z,3.90
2018-07-13T10:46:05.152Z,3.83
2018-07-13T10:47:08.818Z,3.83
2018-07-13T10:48:12.444Z,4.30
2018-07-13T10:49:16.484Z,3.92
2018-07-13T10:50:20.684Z,3.95
2018-07-13T10:51:24.404Z,4.42
2018-07-13T10:52:28.014Z,4.55
2018-07-13T10:53:32.576Z,4.47
2018-07-13T10:54:36.189Z,4.58
2018-07-13T10:55:40.588Z,4.67
2018-07-13T10:56:44.130Z,4.75
2018-07-13T10:57:47.599Z,4.55
2018-07-13T10:58:51.342Z,4.58
2018-07-13T10:59:55.174Z,3.85
2018-07-13T11:00:58.766Z,3.58
2018-07-13T11:02:02.334Z,3.70
2018-07-13T11:03:06.951Z,4.17
2018-07-13T11:04:16.703Z,3.77
2018-07-13T11:05:20.440Z,3.75
2018-07-13T11:06:24.728Z,3.50
2018-07-13T11:07:28.393Z,4.05
2018-07-13T11:08:32.609Z,3.98
2018-07-13T11:09:36.263Z,4.03
2018-07-13T11:10:39.801Z,3.87
2018-07-13T11:11:43.329Z,3.37
2018-07-13T11:12:47.276Z,3.83
2018-07-13T11:13:52.036Z,4.83
2018-07-13T11:14:55.459Z,4.30
2018-07-13T11:15:59.110Z,4.08
2018-07-13T11:17:02.616Z,3.10
2018-07-13T11:18:06.435Z,3.58
2018-07-13T11:19:09.981Z,3.60
2018-07-13T11:20:13.936Z,3.67
2018-07-13T11:21:17.679Z,3.90
2018-07-13T11:22:21.186Z,3.77
2018-07-13T11:23:24.662Z,3.62
2018-07-13T11:24:28.197Z,3.27
2018-07-13T11:25:31.805Z,3.22
2018-07-13T11:26:35.936Z,3.50
2018-07-13T11:27:39.461Z,3.55
2018-07-13T11:28:43.177Z,3.87
2018-07-13T11:29:46.855Z,3.77
2018-07-13T11:30:51.016Z,3.98
2018-07-13T11:31:54.732Z,4.28
2018-07-13T11:32:58.249Z,3.70
2018-07-13T11:34:02.659Z,3.75
2018-07-13T11:35:06.373Z,4.20
2018-07-13T11:36:10.012Z,4.03
2018-07-13T11:37:13.786Z,4.17
2018-07-13T11:38:17.240Z,3.90
2018-07-13T11:39:20.791Z,3.65
2018-07-13T11:40:24.416Z,3.85
2018-07-13T11:41:28.681Z,4.05
2018-07-13T11:42:32.398Z,3.65
2018-07-13T11:43:36.411Z,3.67
2018-07-13T11:44:40.142Z,3.72
2018-07-13T11:45:43.707Z,3.90
2018-07-13T11:46:47.433Z,4.30
2018-07-13T11:47:51.061Z,4.10
2018-07-13T11:48:54.656Z,4.40
2018-07-13T11:49:58.207Z,3.92
2018-07-13T11:51:01.887Z,3.60
2018-07-13T11:52:06.309Z,3.62
2018-07-13T11:53:10.518Z,3.77
2018-07-13T11:54:15.233Z,3.62
2018-07-13T11:55:19.171Z,3.65
2018-07-13T11:56:22.825Z,3.02
2018-07-13T11:57:26.394Z,4.08
2018-07-13T11:58:29.913Z,4.37
2018-07-13T11:59:33.446Z,4.03
2018-07-13T12:00:37.522Z,3.70
2018-07-13T12:01:41.721Z,3.72
2018-07-13T12:02:45.271Z,3.40
2018-07-13T12:03:48.807Z,3.72
2018-07-13T12:04:52.325Z,3.52
2018-07-13T12:05:55.530Z,4.05
2018-07-13T12:06:59.132Z,3.87
2018-07-13T12:08:02.721Z,3.58
2018-07-13T12:09:07.083Z,4.50
2018-07-13T12:10:11.326Z,4.53
2018-07-13T12:11:14.907Z,4.15
2018-07-13T12:12:18.571Z,4.17
2018-07-13T12:13:23.903Z,3.75
2018-07-13T12:14:28.254Z,3.58
2018-07-13T12:15:32.350Z,4.15
2018-07-13T12:16:36.058Z,3.65
2018-07-13T12:17:39.707Z,4.03
2018-07-13T12:18:43.370Z,3.50
2018-07-13T12:19:47.015Z,3.77
2018-07-13T12:20:51.281Z,3.62
2018-07-13T12:21:55.164Z,3.85
2018-07-13T12:22:58.805Z,3.30
2018-07-13T12:24:02.566Z,3.47
2018-07-13T12:25:06.736Z,3.47
2018-07-13T12:26:11.632Z,3.70
2018-07-13T12:27:16.357Z,3.83
2018-07-13T12:28:20.082Z,3.52
2018-07-13T12:29:23.634Z,3.65
2018-07-13T12:30:27.445Z,3.75
2018-07-13T12:31:30.956Z,3.90
2018-07-13T12:32:34.516Z,3.90
2018-07-13T12:33:38.130Z,3.55
2018-07-13T12:34:41.659Z,3.80
2018-07-13T12:35:45.368Z,4.15
2018-07-13T12:36:49.318Z,4.28
2018-07-13T12:37:52.841Z,3.80
2018-07-13T12:38:57.312Z,3.60
2018-07-13T12:40:01.205Z,4.03
2018-07-13T12:41:04.733Z,3.67
2018-07-13T12:42:08.870Z,4.42
2018-07-13T12:43:12.690Z,3.60
2018-07-13T12:44:16.427Z,3.58
2018-07-13T12:45:20.051Z,3.42
2018-07-13T12:46:23.674Z,3.20
2018-07-13T12:47:27.207Z,3.55
2018-07-13T12:48:30.743Z,3.52
2018-07-13T12:49:35.102Z,3.15
2018-07-13T12:50:38.780Z,3.45
2018-07-13T12:51:42.623Z,3.33
2018-07-13T12:52:46.668Z,3.12
2018-07-13T12:53:50.857Z,3.00
2018-07-13T12:54:54.814Z,2.90
2018-07-13T12:55:59.588Z,2.67
2018-07-13T12:57:04.125Z,2.87
2018-07-13T12:58:07.865Z,3.65
2018-07-13T12:59:11.850Z,3.70
2018-07-13T13:00:15.396Z,3.20
2018-07-13T13:01:18.926Z,3.08
2018-07-13T13:02:22.688Z,3.37
2018-07-13T13:03:26.219Z,3.17
2018-07-13T13:04:29.938Z,3.42
2018-07-13T13:05:33.630Z,3.20
2018-07-13T13:06:37.221Z,3.42
2018-07-13T13:07:41.871Z,3.33
2018-07-13T13:08:45.496Z,3.40
2018-07-13T13:09:48.997Z,3.10
2018-07-13T13:10:52.239Z,3.20
2018-07-13T13:11:56.102Z,3.17
2018-07-13T13:12:59.633Z,2.98
2018-07-13T13:14:03.932Z,3.27
2018-07-13T13:15:07.805Z,2.75
2018-07-13T13:16:12.024Z,3.60
2018-07-13T13:17:16.524Z,3.22
2018-07-13T13:18:20.121Z,3.33
2018-07-13T13:19:24.014Z,3.00
2018-07-13T13:20:27.625Z,2.98
2018-07-13T13:21:31.644Z,2.95
2018-07-13T13:22:35.388Z,2.80
2018-07-13T13:23:39.018Z,2.70
2018-07-13T13:24:42.657Z,2.55
2018-07-13T13:25:46.217Z,3.12
2018-07-13T13:26:50.320Z,2.77
2018-07-13T13:27:53.823Z,2.83
2018-07-13T13:28:58.287Z,2.85
2018-07-13T13:30:02.107Z,2.72
2018-07-13T13:31:05.783Z,3.25
2018-07-13T13:32:09.507Z,3.95
2018-07-13T13:33:13.548Z,2.92
2018-07-13T13:34:17.106Z,2.87
2018-07-13T13:35:22.502Z,2.37
2018-07-13T13:36:26.207Z,3.52
2018-07-13T13:37:29.852Z,2.75
2018-07-13T13:38:33.345Z,2.70
2018-07-13T13:39:36.990Z,2.45
2018-07-13T13:40:40.479Z,2.62
2018-07-13T13:41:44.134Z,2.50
2018-07-13T13:42:48.364Z,2.77
2018-07-13T13:43:52.067Z,2.62
2018-07-13T13:44:55.688Z,2.52
2018-07-13T13:45:59.232Z,2.90
2018-07-13T13:47:02.745Z,3.00
2018-07-13T13:48:06.715Z,3.35
2018-07-13T13:49:10.987Z,3.12
2018-07-13T13:50:14.697Z,2.77
2018-07-13T13:51:18.320Z,2.62
2018-07-13T13:52:21.910Z,2.75
2018-07-13T13:53:25.523Z,3.00
2018-07-13T13:54:29.118Z,2.50
2018-07-13T13:55:32.765Z,2.92
2018-07-13T13:56:36.338Z,2.75
2018-07-13T13:57:40.036Z,2.47
2018-07-13T13:58:43.703Z,2.60
2018-07-13T13:59:47.293Z,2.37
2018-07-13T14:00:50.872Z,2.67
2018-07-13T14:01:54.592Z,2.70
2018-07-13T14:02:58.179Z,2.98
2018-07-13T14:04:01.762Z,2.72